Time;durP1;ratioP1;P1;durP2;ratioP2;P2;SDS_P1;SDS_P2;PMS_P1;PMS_P2;Temp;Humidity;BMP_temperature;BMP_pressure;BME280_temperature;BME280_humidity;BME280_pressure;Samples;Min_cycle;Max_cycle;Signal;HPM_P1;HPM_P2
2022/11/05 00:10:49;;;;;;;48.58;28.05;;;;;;;3.18;79.49;100450.33;1762421;78;21029;-71
2022/11/05 00:19:05;;;;;;;38.60;25.27;;;;;;;3.41;79.95;100442.25;1723654;79;21008;-70
2022/11/05 00:26:45;;;;;;;40.78;26.80;;;;;;;3.55;79.96;100443.33;1805734;78;21088;-70
2022/11/05 00:29:12;;;;;;;40.50;25.17;;;;;;;3.55;80.03;100433.73;1803815;77;21801;-70
2022/11/05 00:31:39;;;;;;;35.40;23.38;;;;;;;3.60;80.12;100429.59;1788850;78;20994;-71
2022/11/05 00:34:07;;;;;;;37.17;23.67;;;;;;;3.65;80.18;100428.89;1802507;77;21515;-71
2022/11/05 00:36:36;;;;;;;38.53;23.50;;;;;;;3.67;80.16;100431.84;1805498;78;21492;-70
2022/11/05 00:39:05;;;;;;;35.25;23.22;;;;;;;3.68;80.02;100432.68;1805538;77;21067;-70
2022/11/05 00:41:31;;;;;;;31.80;21.50;;;;;;;3.69;80.07;100427.84;1773819;79;21939;-71
2022/11/05 00:46:44;;;;;;;24.80;18.02;;;;;;;3.77;80.26;100432.68;1795217;78;21045;-70
2022/11/05 00:49:30;;;;;;;22.45;17.15;;;;;;;3.81;80.33;100424.59;1792359;77;21032;-70
2022/11/05 00:54:46;;;;;;;24.35;15.72;;;;;;;3.86;80.36;100429.14;1802845;78;21030;-71
2022/11/05 00:57:12;;;;;;;24.32;15.53;;;;;;;3.86;80.41;100430.45;1816285;77;21365;-71
2022/11/05 00:59:41;;;;;;;20.75;15.32;;;;;;;3.85;80.42;100430.03;1814231;77;21392;-71
2022/11/05 01:02:16;;;;;;;21.90;15.38;;;;;;;3.87;80.39;100428.22;1816827;77;21031;-70
2022/11/05 01:04:48;;;;;;;21.10;14.93;;;;;;;3.88;80.28;100431.21;1819633;78;21005;-71
2022/11/05 01:07:16;;;;;;;19.85;14.18;;;;;;;3.89;80.33;100432.90;1818811;77;21745;-71
2022/11/05 01:09:43;;;;;;;23.98;14.18;;;;;;;3.88;80.33;100436.44;1816181;77;21067;-71
2022/11/05 01:12:10;;;;;;;23.42;13.53;;;;;;;3.87;80.27;100433.44;1803134;77;20992;-71
2022/11/05 01:14:37;;;;;;;21.45;14.25;;;;;;;3.87;80.19;100438.67;1809779;77;21020;-71
2022/11/05 01:17:05;;;;;;;21.30;15.05;;;;;;;3.86;80.05;100435.67;1818097;77;21025;-71
2022/11/05 01:19:32;;;;;;;21.57;14.95;;;;;;;3.84;80.01;100437.95;1816658;77;22660;-70
2022/11/05 01:22:00;;;;;;;18.80;14.18;;;;;;;3.84;80.08;100432.27;1816003;77;21488;-71
2022/11/05 01:24:28;;;;;;;24.15;14.28;;;;;;;3.83;80.04;100436.27;1818741;78;21076;-71
2022/11/05 01:26:54;;;;;;;21.33;14.47;;;;;;;3.81;80.11;100431.59;1819761;78;20993;-71
2022/11/05 01:29:21;;;;;;;20.75;14.35;;;;;;;3.84;80.21;100428.81;1818019;77;21037;-70
2022/11/05 01:31:48;;;;;;;22.27;16.12;;;;;;;3.85;80.12;100434.42;1817184;77;23629;-71
2022/11/05 01:34:14;;;;;;;35.55;18.82;;;;;;;3.82;80.08;100435.43;1819662;77;20970;-71
2022/11/05 01:36:42;;;;;;;36.35;17.98;;;;;;;3.84;80.09;100437.50;1819480;77;21424;-70
2022/11/05 01:39:11;;;;;;;40.45;18.27;;;;;;;3.86;80.12;100436.98;1816388;77;21002;-71
2022/11/05 01:41:38;;;;;;;40.35;19.48;;;;;;;3.86;80.05;100433.50;1806589;77;20993;-70
2022/11/05 01:44:05;;;;;;;46.60;18.67;;;;;;;3.86;80.01;100436.11;1819427;77;22837;-71
2022/11/05 01:46:42;;;;;;;67.25;20.20;;;;;;;3.85;79.98;100436.57;1818207;77;20937;-71
2022/11/05 01:49:29;;;;;;;68.40;20.37;;;;;;;3.84;80.04;100440.11;1820134;77;21472;-72
2022/11/05 01:51:56;;;;;;;55.20;18.12;;;;;;;3.86;80.22;100438.29;1805161;77;21354;-71
2022/11/05 01:54:26;;;;;;;66.40;15.23;;;;;;;3.87;80.33;100444.36;1815338;77;21106;-71
2022/11/05 01:56:56;;;;;;;36.23;15.72;;;;;;;3.87;80.39;100439.97;1813646;77;21794;-71
2022/11/05 01:59:37;;;;;;;32.42;14.55;;;;;;;3.88;80.48;100439.05;1781300;77;20954;-71
2022/11/05 02:02:04;;;;;;;30.88;14.23;;;;;;;3.90;80.54;100441.58;1810609;77;20901;-69
2022/11/05 02:04:41;;;;;;;33.75;15.15;;;;;;;3.93;80.58;100439.64;1803990;77;20950;-71
2022/11/05 02:07:08;;;;;;;24.57;14.38;;;;;;;3.96;80.66;100444.73;1811070;77;20985;-71
2022/11/05 02:10:07;;;;;;;57.33;15.13;;;;;;;3.99;80.74;100439.34;1786161;79;22596;-71
2022/11/05 02:12:36;;;;;;;50.73;14.93;;;;;;;4.03;80.85;100443.48;1788687;79;20931;-71
2022/11/05 02:15:04;;;;;;;107.43;16.07;;;;;;;4.08;80.98;100445.03;1807130;77;21564;-71
2022/11/05 02:17:42;;;;;;;82.42;15.50;;;;;;;4.12;81.03;100446.55;1789104;79;21727;-71
2022/11/05 02:20:40;;;;;;;49.20;15.00;;;;;;;4.15;81.06;100451.61;1808108;77;21494;-72
2022/11/05 02:23:39;;;;;;;106.12;16.02;;;;;;;4.17;81.13;100455.02;1793507;77;22949;-71
2022/11/05 02:26:38;;;;;;;106.83;15.88;;;;;;;4.21;81.20;100457.84;1807239;78;20915;-70
2022/11/05 02:29:45;;;;;;;139.15;16.17;;;;;;;4.24;81.19;100458.52;1803959;77;21037;-70
2022/11/05 02:32:45;;;;;;;64.60;15.00;;;;;;;4.27;81.29;100462.77;1791665;77;20950;-71
2022/11/05 02:35:36;;;;;;;30.62;13.93;;;;;;;4.30;81.44;100459.52;1809751;78;20942;-70
2022/11/05 02:38:17;;;;;;;46.25;13.72;;;;;;;4.33;81.50;100457.66;1789962;77;22434;-70
2022/11/05 02:41:02;;;;;;;28.85;13.30;;;;;;;4.35;81.56;100459.29;1725971;77;20998;-71
2022/11/05 02:44:17;;;;;;;77.97;13.80;;;;;;;4.38;81.53;100455.20;1809990;77;20996;-69
2022/11/05 02:47:07;;;;;;;58.92;13.08;;;;;;;4.40;81.54;100460.34;1791487;77;20947;-70
2022/11/05 02:49:48;;;;;;;46.75;12.98;;;;;;;4.40;81.56;100455.95;1808071;77;20977;-69
2022/11/05 02:52:38;;;;;;;41.80;13.53;;;;;;;4.40;81.49;100469.03;1759140;80;21959;-69
2022/11/05 02:55:13;;;;;;;113.17;16.15;;;;;;;4.38;81.35;100482.66;1736717;81;21412;-70
2022/11/05 02:57:45;;;;;;;104.58;16.07;;;;;;;4.31;81.19;100476.89;1737193;81;21035;-70
2022/11/05 03:00:49;;;;;;;115.35;16.27;;;;;;;4.27;81.19;100478.45;1718643;81;20973;-70
2022/11/05 03:03:47;;;;;;;101.70;16.62;;;;;;;4.25;81.21;100481.14;1765133;80;25183;-70
2022/11/05 03:06:22;;;;;;;136.72;18.85;;;;;;;4.22;81.15;100475.21;1697897;82;23479;-70
2022/11/05 03:09:40;;;;;;;104.55;17.98;;;;;;;4.21;81.24;100479.59;1739685;81;21018;-70
2022/11/05 03:12:33;;;;;;;74.45;18.42;;;;;;;4.21;81.28;100477.44;1727497;80;21325;-70
2022/11/05 03:15:34;;;;;;;95.97;17.48;;;;;;;4.21;81.37;100482.67;1741084;81;21022;-70
2022/11/05 03:18:06;;;;;;;79.87;16.37;;;;;;;4.21;81.52;100486.13;1740989;82;20997;-70
2022/11/05 03:20:50;;;;;;;71.55;15.93;;;;;;;4.21;81.64;100480.06;1737800;81;21867;-70
2022/11/05 03:23:52;;;;;;;77.20;14.78;;;;;;;4.21;81.71;100480.06;1739006;81;20954;-70
2022/11/05 03:26:30;;;;;;;69.00;15.43;;;;;;;4.21;81.76;100473.52;1735490;81;21065;-71
2022/11/05 03:29:05;;;;;;;68.83;15.53;;;;;;;4.23;81.75;100461.20;1740604;81;21053;-70
2022/11/05 03:31:32;;;;;;;65.47;15.05;;;;;;;4.23;81.79;100466.44;1740989;82;20958;-70
2022/11/05 03:33:58;;;;;;;55.78;15.83;;;;;;;4.25;81.73;100465.92;1732205;81;21825;-70
2022/11/05 03:36:40;;;;;;;67.80;15.40;;;;;;;4.25;81.74;100478.53;1716092;82;21024;-70
2022/11/05 03:39:11;;;;;;;103.07;15.23;;;;;;;4.26;81.79;100474.14;1802349;78;20982;-70
2022/11/05 03:41:39;;;;;;;83.35;15.15;;;;;;;4.27;81.72;100471.91;1781148;78;21771;-70
2022/11/05 03:44:06;;;;;;;156.07;16.52;;;;;;;4.26;81.64;100473.68;1806416;78;21047;-70
2022/11/05 03:46:44;;;;;;;165.82;19.98;;;;;;;4.24;81.54;100469.44;1800774;78;21940;-70
2022/11/05 03:49:15;;;;;;;148.80;21.15;;;;;;;4.20;81.51;100471.37;1801493;78;21049;-70
2022/11/05 03:52:02;;;;;;;148.53;20.55;;;;;;;4.20;81.58;100480.52;1796119;78;21000;-70
2022/11/05 03:54:28;;;;;;;168.50;22.22;;;;;;;4.22;81.61;100484.36;1803613;78;21031;-70
2022/11/05 03:57:19;;;;;;;180.78;22.07;;;;;;;4.23;81.70;100488.66;1804656;78;20934;-70
2022/11/05 03:59:48;;;;;;;186.70;22.15;;;;;;;4.24;81.83;100495.58;1781335;78;21847;-70
2022/11/05 04:02:18;;;;;;;269.15;24.32;;;;;;;4.26;81.99;100497.67;1792302;78;20998;-70
2022/11/05 04:04:46;;;;;;;278.52;25.43;;;;;;;4.28;81.99;100507.13;1758505;78;20942;-70
2022/11/05 04:15:29;;;;;;;278.70;25.25;;;;;;;4.34;82.02;100509.87;1748760;80;21447;-71
2022/11/05 04:17:57;;;;;;;249.98;24.00;;;;;;;4.36;82.08;100506.73;1709284;82;21055;-71
2022/11/05 04:25:56;;;;;;;144.87;24.72;;;;;;;4.44;82.21;100512.42;1717158;81;21953;-71
2022/11/05 04:30:17;;;;;;;157.65;23.85;;;;;;;4.47;82.29;100508.33;1729165;80;21024;-71
2022/11/05 04:30:53;;;;;;;151.60;22.13;;;;;;;4.51;82.40;100503.77;1726597;82;21011;-71
2022/11/05 04:33:19;;;;;;;105.47;22.00;;;;;;;4.54;82.49;100509.70;1729331;80;21088;-71
2022/11/05 04:35:47;;;;;;;97.12;22.60;;;;;;;4.55;82.46;100508.78;1741401;80;21029;-71
2022/11/05 04:38:18;;;;;;;98.45;21.77;;;;;;;4.57;82.49;100512.16;1749787;80;20929;-70
2022/11/05 04:40:46;;;;;;;100.95;22.98;;;;;;;4.59;82.59;100514.22;1746422;81;20951;-71
2022/11/05 04:43:17;;;;;;;81.87;24.10;;;;;;;4.59;82.64;100520.76;1746749;80;21367;-71
2022/11/05 04:45:44;;;;;;;103.65;23.07;;;;;;;4.60;82.71;100526.83;1740341;80;21000;-71
2022/11/05 04:48:11;;;;;;;165.62;21.85;;;;;;;4.60;82.80;100521.14;1748060;80;21008;-71
2022/11/05 04:50:38;;;;;;;209.05;29.70;;;;;;;4.64;82.85;100517.92;1748015;82;21960;-71
2022/11/05 04:53:05;;;;;;;181.52;24.57;;;;;;;4.67;82.76;100520.36;1744538;80;21487;-71
2022/11/05 04:55:32;;;;;;;180.78;23.05;;;;;;;4.65;82.61;100522.69;1748120;80;20960;-71
2022/11/05 04:57:58;;;;;;;222.20;24.27;;;;;;;4.65;82.59;100529.23;1746066;80;20988;-71
2022/11/05 05:00:25;;;;;;;208.90;24.02;;;;;;;4.63;82.57;100524.05;1747073;82;21031;-71
2022/11/05 05:02:52;;;;;;;147.68;23.47;;;;;;;4.63;82.54;100520.12;1738818;80;21777;-71
2022/11/05 05:05:20;;;;;;;162.75;21.02;;;;;;;4.61;82.52;100529.83;1719001;80;21043;-71
2022/11/05 05:07:47;;;;;;;176.32;21.42;;;;;;;4.60;82.48;100535.52;1729999;80;21462;-71
2022/11/05 05:10:14;;;;;;;244.18;23.98;;;;;;;4.58;82.41;100543.08;1746883;82;20959;-71
2022/11/05 05:12:40;;;;;;;220.40;23.80;;;;;;;4.55;82.33;100541.94;1748052;80;21059;-70
2022/11/05 05:15:07;;;;;;;218.45;24.92;;;;;;;4.50;82.27;100542.16;1740865;80;22341;-71
2022/11/05 05:17:34;;;;;;;225.50;25.48;;;;;;;4.46;82.24;100539.80;1734933;82;20964;-71
2022/11/05 05:22:53;;;;;;;168.25;25.55;;;;;;;4.45;82.55;100543.34;1746562;80;21063;-71
2022/11/05 05:25:20;;;;;;;186.10;25.43;;;;;;;4.49;82.76;100548.78;1748309;80;21003;-71
2022/11/05 05:27:48;;;;;;;137.22;23.40;;;;;;;4.53;82.91;100554.23;1744057;82;21065;-71
2022/11/05 05:30:15;;;;;;;131.03;23.80;;;;;;;4.54;82.98;100554.17;1743062;80;20960;-71
2022/11/05 05:32:43;;;;;;;150.05;23.47;;;;;;;4.54;83.03;100563.33;1778185;79;20982;-71
2022/11/05 05:35:10;;;;;;;133.12;23.57;;;;;;;4.56;83.06;100556.70;1803582;78;21441;-71
2022/11/05 05:37:37;;;;;;;112.62;22.93;;;;;;;4.59;83.12;100563.92;1792863;79;21543;-71
2022/11/05 05:40:05;;;;;;;171.40;21.37;;;;;;;4.64;83.14;100557.16;1800467;78;21834;-71
2022/11/05 05:42:33;;;;;;;119.25;22.62;;;;;;;4.66;83.14;100563.62;1802354;79;20930;-70
2022/11/05 05:45:01;;;;;;;121.07;22.35;;;;;;;4.64;83.04;100565.48;1799842;79;20994;-70
2022/11/05 05:47:28;;;;;;;79.60;21.90;;;;;;;4.63;83.14;100571.60;1792939;79;21069;-71
2022/11/05 05:49:54;;;;;;;78.52;21.23;;;;;;;4.65;83.23;100581.09;1795550;78;21106;-70
2022/11/05 05:52:21;;;;;;;78.10;21.90;;;;;;;4.68;83.32;100578.77;1799335;78;21908;-70
2022/11/05 05:54:47;;;;;;;39.35;21.05;;;;;;;4.71;83.38;100586.45;1794211;78;21029;-70
2022/11/05 05:57:13;;;;;;;36.98;21.82;;;;;;;4.73;83.46;100586.77;1802998;79;21059;-70
2022/11/05 05:59:41;;;;;;;34.38;23.98;;;;;;;4.79;83.54;100589.52;1811296;78;21044;-71
2022/11/05 06:02:07;;;;;;;29.35;21.82;;;;;;;4.84;83.67;100590.98;1807810;77;21096;-71
2022/11/05 06:04:34;;;;;;;27.67;20.08;;;;;;;4.93;83.80;100597.98;1811607;79;21809;-70
2022/11/05 06:07:00;;;;;;;25.95;20.35;;;;;;;5.00;83.92;100604.09;1811455;77;21021;-70
2022/11/05 06:09:27;;;;;;;26.25;20.68;;;;;;;5.09;83.96;100602.77;1808513;77;21032;-71
2022/11/05 06:11:54;;;;;;;25.95;20.65;;;;;;;5.16;84.06;100602.36;1797109;77;20993;-71
2022/11/05 06:14:20;;;;;;;25.65;19.95;;;;;;;5.26;84.15;100603.19;1800829;77;21530;-71
2022/11/05 06:16:48;;;;;;;25.20;20.60;;;;;;;5.37;84.25;100608.68;1811681;78;21875;-70
2022/11/05 06:19:15;;;;;;;25.15;20.68;;;;;;;5.46;84.36;100604.25;1804521;77;21044;-71
2022/11/05 06:21:42;;;;;;;25.70;20.65;;;;;;;5.56;84.46;100604.59;1805408;77;21036;-70
2022/11/05 06:24:09;;;;;;;32.10;22.52;;;;;;;5.66;84.55;100617.58;1810210;78;21408;-70
2022/11/05 06:26:41;;;;;;;29.92;23.20;;;;;;;5.78;84.71;100619.97;1811983;77;20965;-70
2022/11/05 06:29:09;;;;;;;34.67;26.85;;;;;;;5.90;84.86;100616.69;1808759;77;21932;-71
2022/11/05 06:31:37;;;;;;;36.05;27.05;;;;;;;6.03;85.03;100609.38;1797683;77;21025;-70
2022/11/05 06:34:05;;;;;;;34.45;26.62;;;;;;;6.19;85.26;100613.30;1806870;77;21105;-71
2022/11/05 06:36:32;;;;;;;36.85;27.75;;;;;;;6.35;85.51;100622.88;1809551;77;21034;-71
2022/11/05 06:39:00;;;;;;;33.42;25.25;;;;;;;6.45;85.52;100624.04;1796787;77;21072;-70
2022/11/05 06:41:26;;;;;;;34.13;25.32;;;;;;;6.48;85.48;100622.57;1807440;79;21819;-70
2022/11/05 06:43:52;;;;;;;35.80;24.12;;;;;;;6.48;85.36;100623.87;1806640;77;21015;-71
2022/11/05 06:46:19;;;;;;;32.80;24.63;;;;;;;6.49;85.38;100623.79;1812279;77;21531;-69
2022/11/05 06:48:47;;;;;;;34.65;24.05;;;;;;;6.50;85.40;100625.47;1808464;78;21032;-69
2022/11/05 06:51:14;;;;;;;33.65;24.50;;;;;;;6.55;85.49;100634.38;1809543;77;21036;-70
2022/11/05 06:53:41;;;;;;;33.48;24.07;;;;;;;6.61;85.58;100637.96;1808256;77;21912;-69
2022/11/05 06:56:07;;;;;;;29.18;23.32;;;;;;;6.67;85.66;100636.77;1809334;77;21010;-69
2022/11/05 06:58:34;;;;;;;26.93;20.25;;;;;;;6.73;85.73;100643.80;1804412;78;21080;-69
2022/11/05 07:01:04;;;;;;;29.95;20.48;;;;;;;6.78;85.77;100650.10;1787148;78;21408;-69
2022/11/05 07:03:30;;;;;;;25.97;18.77;;;;;;;6.82;85.69;100662.09;1798203;78;21041;-71
2022/11/05 07:05:58;;;;;;;24.80;19.27;;;;;;;6.83;85.67;100659.84;1795139;78;21996;-69
2022/11/05 07:08:33;;;;;;;32.35;22.52;;;;;;;6.84;85.63;100657.59;1782372;78;20990;-69
2022/11/05 07:11:01;;;;;;;25.43;19.95;;;;;;;6.84;85.58;100658.44;1730570;81;21069;-70
2022/11/05 07:13:29;;;;;;;32.25;22.05;;;;;;;6.83;85.55;100658.06;1735516;80;21027;-71
2022/11/05 07:15:57;;;;;;;34.92;23.50;;;;;;;6.85;85.52;100667.16;1740551;80;21525;-71
2022/11/05 07:18:24;;;;;;;33.05;22.60;;;;;;;6.90;85.58;100658.55;1744678;82;21926;-69
2022/11/05 07:20:51;;;;;;;30.08;21.93;;;;;;;6.93;85.57;100657.52;1736150;82;21004;-69
2022/11/05 07:23:19;;;;;;;27.95;20.82;;;;;;;6.96;85.58;100656.05;1745597;82;21004;-68
2022/11/05 07:25:46;;;;;;;30.97;21.48;;;;;;;6.98;85.59;100658.95;1745973;82;21008;-69
2022/11/05 07:28:14;;;;;;;31.07;21.37;;;;;;;7.03;85.65;100657.34;1738331;82;21420;-69
2022/11/05 07:30:42;;;;;;;29.37;20.77;;;;;;;7.07;85.65;100664.96;1745058;82;21938;-69
2022/11/05 07:33:09;;;;;;;25.62;19.35;;;;;;;7.13;85.69;100665.89;1745300;82;21004;-69
2022/11/05 07:35:36;;;;;;;20.75;16.20;;;;;;;7.22;85.82;100668.90;1745952;82;20933;-69
2022/11/05 07:38:03;;;;;;;23.27;18.20;;;;;;;7.30;85.88;100661.40;1738904;82;21487;-69
2022/11/05 07:40:29;;;;;;;28.27;18.62;;;;;;;7.32;85.73;100668.23;1743019;82;20988;-69
2022/11/05 07:42:59;;;;;;;26.27;17.17;;;;;;;7.33;85.68;100671.71;1783633;79;21881;-69
2022/11/05 07:45:27;;;;;;;21.73;16.25;;;;;;;7.33;85.54;100673.87;1801871;78;21048;-70
2022/11/05 07:47:57;;;;;;;22.45;16.87;;;;;;;7.33;85.49;100681.75;1765108;79;21354;-69
2022/11/05 07:50:28;;;;;;;22.98;15.38;;;;;;;7.34;85.47;100682.16;1803899;79;21398;-69
2022/11/05 07:53:05;;;;;;;22.10;14.50;;;;;;;7.35;85.40;100685.16;1802415;78;20955;-69
2022/11/05 07:55:32;;;;;;;99.58;30.15;;;;;;;7.35;85.29;100681.21;1782169;79;21892;-69
2022/11/05 07:57:59;;;;;;;33.92;16.37;;;;;;;7.35;85.22;100677.74;1780507;79;21368;-69
2022/11/05 08:00:27;;;;;;;56.10;16.85;;;;;;;7.30;85.10;100678.00;1809514;79;21412;-69
2022/11/05 08:03:07;;;;;;;58.35;23.98;;;;;;;7.28;85.04;100681.67;1809339;78;20939;-68
2022/11/05 08:05:35;;;;;;;67.08;24.45;;;;;;;7.26;84.95;100683.08;1808711;79;20989;-69
2022/11/05 08:08:04;;;;;;;45.80;20.45;;;;;;;7.26;84.93;100686.19;1804736;78;22565;-69
2022/11/05 08:10:32;;;;;;;41.77;14.93;;;;;;;7.26;84.83;100703.27;1810058;77;21008;-69
2022/11/05 08:12:59;;;;;;;36.17;15.80;;;;;;;7.23;84.67;100705.58;1804689;79;20977;-69
2022/11/05 08:15:27;;;;;;;43.52;17.92;;;;;;;7.18;84.62;100700.62;1781781;79;21403;-69
2022/11/05 08:18:02;;;;;;;47.38;19.20;;;;;;;7.16;84.58;100701.66;1810367;77;20954;-69
2022/11/05 08:20:29;;;;;;;41.05;18.00;;;;;;;7.20;84.76;100691.80;1812259;77;21818;-68
2022/11/05 08:22:56;;;;;;;31.70;16.77;;;;;;;7.26;84.83;100690.12;1811670;79;20942;-69
2022/11/05 08:25:23;;;;;;;20.52;13.58;;;;;;;7.30;84.87;100687.67;1810452;77;20945;-69
2022/11/05 08:28:00;;;;;;;16.30;12.82;;;;;;;7.32;84.83;100694.52;1793914;77;21005;-69
2022/11/05 08:30:27;;;;;;;19.10;14.00;;;;;;;7.32;84.78;100700.24;1809875;77;20981;-70
2022/11/05 08:33:02;;;;;;;31.60;16.93;;;;;;;7.28;84.71;100700.06;1811376;79;21984;-69
2022/11/05 08:35:29;;;;;;;28.45;19.35;;;;;;;7.32;84.80;100696.30;1810244;77;21427;-70
2022/11/05 08:37:59;;;;;;;24.25;17.27;;;;;;;7.35;84.83;100704.86;1809809;78;21034;-69
2022/11/05 08:40:26;;;;;;;28.15;21.20;;;;;;;7.37;84.81;100708.23;1805811;77;22073;-70
2022/11/05 08:43:01;;;;;;;37.33;24.02;;;;;;;7.40;84.76;100710.67;1807692;77;21029;-70
2022/11/05 08:45:28;;;;;;;28.52;21.12;;;;;;;7.45;84.75;100707.30;1802316;77;21963;-70
2022/11/05 08:48:08;;;;;;;27.70;20.75;;;;;;;7.47;84.64;100715.09;1804810;77;21135;-70
2022/11/05 08:50:36;;;;;;;22.58;16.75;;;;;;;7.50;84.68;100710.11;1792657;79;20961;-70
2022/11/05 08:53:04;;;;;;;24.55;17.85;;;;;;;7.55;84.70;100706.27;1811387;77;21056;-70
2022/11/05 08:55:30;;;;;;;23.27;17.02;;;;;;;7.60;84.73;100718.64;1786914;77;21032;-70
2022/11/05 08:57:59;;;;;;;24.30;18.37;;;;;;;7.64;84.72;100715.37;1810276;79;21829;-70
2022/11/05 09:00:27;;;;;;;23.05;17.77;;;;;;;7.68;84.66;100714.23;1809265;78;20937;-69
2022/11/05 09:03:01;;;;;;;26.65;18.90;;;;;;;7.69;84.54;100714.13;1803722;78;20993;-70
2022/11/05 09:05:29;;;;;;;;;;;;;;;7.69;84.50;100719.39;1779015;79;21040;-70
2022/11/05 09:07:55;;;;;;;25.35;18.50;;;;;;;7.75;84.61;100720.34;1797347;78;20146;-69
2022/11/05 09:10:22;;;;;;;26.52;19.17;;;;;;;7.82;84.72;100723.91;1786469;78;21403;-69
2022/11/05 09:12:49;;;;;;;26.57;19.87;;;;;;;7.88;84.68;100723.04;1778439;80;20990;-70
2022/11/05 09:15:16;;;;;;;30.27;20.62;;;;;;;7.92;84.62;100731.13;1787910;78;21458;-70
2022/11/05 09:17:43;;;;;;;30.17;21.10;;;;;;;7.95;84.62;100730.93;1804707;78;21080;-70
2022/11/05 09:20:10;;;;;;;33.75;23.07;;;;;;;8.03;84.61;100737.03;1805877;78;21551;-70
2022/11/05 09:22:36;;;;;;;31.23;22.10;;;;;;;8.04;84.41;100732.14;1801925;78;21818;-70
2022/11/05 09:25:04;;;;;;;28.77;20.62;;;;;;;8.03;84.25;100743.61;1806336;78;20970;-70
2022/11/05 09:27:30;;;;;;;32.08;20.85;;;;;;;8.04;84.18;100743.98;1806122;79;21028;-71
2022/11/05 09:29:59;;;;;;;30.43;22.15;;;;;;;8.02;84.02;100741.92;1804710;78;20934;-70
2022/11/05 09:32:25;;;;;;;32.63;22.75;;;;;;;8.02;83.95;100744.55;1791809;79;20968;-70
2022/11/05 09:34:52;;;;;;;29.45;21.85;;;;;;;8.03;83.96;100744.45;1804392;79;21995;-70
2022/11/05 09:37:20;;;;;;;28.55;21.95;;;;;;;8.08;83.98;100746.77;1806133;79;21037;-70
2022/11/05 09:39:48;;;;;;;26.85;18.95;;;;;;;8.11;83.92;100750.55;1805270;78;21017;-71
2022/11/05 09:42:16;;;;;;;23.55;18.95;;;;;;;8.12;83.84;100757.50;1803342;78;21111;-70
2022/11/05 09:44:52;;;;;;;23.15;19.05;;;;;;;8.13;83.76;100750.45;1806426;78;21374;-69
2022/11/05 09:47:26;;;;;;;45.88;24.90;;;;;;;8.12;83.71;100747.45;1804652;79;21824;-69
2022/11/05 09:49:54;;;;;;;36.20;23.40;;;;;;;8.15;83.69;100749.88;1801714;78;21479;-70
2022/11/05 09:52:24;;;;;;;28.05;21.23;;;;;;;8.15;83.56;100751.19;1791002;78;21400;-69
2022/11/05 09:54:54;;;;;;;25.60;19.57;;;;;;;8.14;83.40;100752.13;1776085;78;21002;-78
2022/11/05 09:57:26;;;;;;;27.98;21.05;;;;;;;8.10;83.21;100747.98;1804474;77;20986;-72
2022/11/05 09:59:55;;;;;;;26.27;19.30;;;;;;;8.06;83.15;100753.08;1803188;78;21937;-71
2022/11/05 10:02:30;;;;;;;26.12;19.87;;;;;;;8.04;83.11;100747.92;1805219;78;21119;-73
2022/11/05 10:05:02;;;;;;;28.42;21.20;;;;;;;8.03;83.03;100738.34;1803619;79;20949;-71
2022/11/05 10:07:33;;;;;;;25.43;19.37;;;;;;;8.00;82.96;100738.05;1807534;77;21059;-72
2022/11/05 10:10:05;;;;;;;24.30;18.15;;;;;;;8.00;83.03;100736.73;1797310;78;20989;-72
2022/11/05 10:12:39;;;;;;;25.90;19.37;;;;;;;8.03;83.03;100738.34;1771202;80;22492;-70
2022/11/05 10:15:29;;;;;;;26.62;20.08;;;;;;;8.02;82.97;100739.29;1783912;78;21014;-71
2022/11/05 10:18:05;;;;;;;24.70;19.15;;;;;;;8.01;82.87;100741.08;1777409;80;20965;-72
2022/11/05 10:20:35;;;;;;;25.17;19.45;;;;;;;8.00;82.78;100738.05;1795074;77;21046;-72
2022/11/05 10:23:15;;;;;;;27.85;19.77;;;;;;;8.03;82.78;100734.40;1811379;77;21029;-71
2022/11/05 10:25:57;;;;;;;25.37;19.05;;;;;;;8.03;82.68;100740.50;1788584;78;21306;-71
2022/11/05 10:28:28;;;;;;;27.10;20.55;;;;;;;8.01;82.57;100742.86;1809791;78;20978;-72
2022/11/05 10:30:58;;;;;;;27.77;21.02;;;;;;;8.00;82.50;100742.46;1809355;79;20998;-72
2022/11/05 10:33:42;;;;;;;27.10;20.55;;;;;;;8.01;82.51;100755.55;1808426;79;21483;-75
2022/11/05 10:36:26;;;;;;;29.02;20.65;;;;;;;8.04;82.52;100752.71;1807765;78;21013;-72
2022/11/05 10:38:53;;;;;;;29.30;20.97;;;;;;;8.06;82.49;100749.14;1804339;79;21868;-73
2022/11/05 10:41:41;;;;;;;31.93;23.22;;;;;;;8.09;82.52;100748.45;1789518;79;21101;-73
2022/11/05 10:44:32;;;;;;;30.17;21.57;;;;;;;8.13;82.47;100751.77;1799948;78;21072;-71
2022/11/05 10:47:36;;;;;;;32.45;22.70;;;;;;;8.15;82.42;100753.82;1801239;78;21610;-72
2022/11/05 10:50:10;;;;;;;27.50;19.87;;;;;;;8.16;82.40;100758.98;1771145;77;20982;-74
2022/11/05 10:52:43;;;;;;;31.05;21.52;;;;;;;8.22;82.42;100755.13;1773991;79;22415;-73
2022/11/05 10:55:21;;;;;;;28.40;22.07;;;;;;;8.23;82.35;100764.23;1750384;81;21028;-74
2022/11/05 10:57:48;;;;;;;27.15;20.45;;;;;;;8.25;82.30;100762.34;1727295;82;21088;-73
2022/11/05 11:00:20;;;;;;;29.87;21.97;;;;;;;8.29;82.18;100770.41;1757371;81;21031;-72
2022/11/05 11:02:58;;;;;;;27.48;20.92;;;;;;;8.31;82.10;100770.34;1730324;81;21068;-72
2022/11/05 11:05:40;;;;;;;30.68;22.52;;;;;;;8.36;82.13;100768.75;1723607;80;22558;-73
2022/11/05 11:08:18;;;;;;;28.95;20.92;;;;;;;8.44;82.16;100768.63;1751875;81;21013;-73
2022/11/05 11:10:53;;;;;;;26.77;21.23;;;;;;;8.54;82.08;100764.94;1729412;81;21074;-71
2022/11/05 11:13:25;;;;;;;30.92;22.82;;;;;;;8.60;81.92;100764.08;1744261;81;22170;-72
2022/11/05 11:15:54;;;;;;;34.18;24.87;;;;;;;8.65;81.75;100756.33;1752737;81;21486;-73
2022/11/05 11:18:37;;;;;;;27.65;22.15;;;;;;;8.71;81.59;100748.89;1751935;81;21770;-73
2022/11/05 11:21:14;;;;;;;;;;;;;;;8.76;81.37;100753.36;1748498;81;21334;-73
2022/11/05 11:23:42;;;;;;;29.12;20.48;;;;;;;8.83;81.16;100751.18;1728166;81;20151;-73
2022/11/05 11:26:10;;;;;;;28.62;20.68;;;;;;;8.86;80.93;100754.44;1748421;80;21086;-73
2022/11/05 11:28:41;;;;;;;28.07;22.02;;;;;;;8.91;80.74;100752.00;1756814;80;21477;-72
2022/11/05 11:31:14;;;;;;;28.27;21.10;;;;;;;8.93;80.50;100756.20;1735200;80;23347;-73
2022/11/05 11:33:46;;;;;;;24.05;19.00;;;;;;;8.95;80.25;100757.42;1750136;81;21027;-73
2022/11/05 11:36:12;;;;;;;22.77;17.27;;;;;;;8.96;80.03;100757.31;1752188;81;21047;-72
2022/11/05 11:38:39;;;;;;;24.02;18.70;;;;;;;8.93;79.77;100754.05;1752955;81;21067;-73
2022/11/05 11:41:11;;;;;;;23.00;17.02;;;;;;;8.88;79.59;100747.31;1745566;81;21051;-73
2022/11/05 11:43:39;;;;;;;20.57;16.52;;;;;;;8.87;79.53;100750.86;1747150;81;21823;-73
2022/11/05 11:46:17;;;;;;;20.82;16.48;;;;;;;8.86;79.36;100752.28;1737000;80;21036;-73
2022/11/05 11:48:46;;;;;;;23.38;16.95;;;;;;;8.84;79.33;100754.18;1747634;81;21069;-73
2022/11/05 11:51:36;;;;;;;19.48;15.93;;;;;;;8.84;79.23;100757.66;1752972;81;21014;-74
2022/11/05 11:54:03;;;;;;;20.72;15.55;;;;;;;8.82;79.14;100760.88;1752908;81;21022;-74
2022/11/05 11:56:43;;;;;;;20.48;15.35;;;;;;;8.79;79.00;100769.46;1752705;81;21818;-73
2022/11/05 11:59:23;;;;;;;20.68;16.70;;;;;;;8.77;78.91;100766.05;1750025;80;21059;-73
2022/11/05 12:02:02;;;;;;;23.32;17.17;;;;;;;8.74;78.76;100765.80;1739909;82;21036;-73
2022/11/05 12:05:20;;;;;;;26.90;20.25;;;;;;;8.70;78.62;100774.02;1734743;82;21098;-73
2022/11/05 12:07:56;;;;;;;33.63;26.90;;;;;;;8.65;78.58;100778.72;1685122;84;21108;-73
2022/11/05 12:10:47;;;;;;;23.02;19.05;;;;;;;8.62;78.38;100790.30;1685458;84;22528;-73
2022/11/05 12:13:28;;;;;;;22.67;18.35;;;;;;;8.59;78.30;100782.14;1716398;82;21035;-73
2022/11/05 12:16:02;;;;;;;20.75;16.35;;;;;;;8.56;78.27;100788.89;1698001;82;21365;-73
2022/11/05 12:18:55;;;;;;;23.22;17.62;;;;;;;8.54;78.24;100790.79;1714589;82;21016;-73
2022/11/05 12:21:46;;;;;;;24.82;18.30;;;;;;;8.51;78.28;100787.05;1713131;82;21023;-72
2022/11/05 12:24:21;;;;;;;24.18;18.20;;;;;;;8.51;78.38;100787.05;1739912;82;21737;-73